createdAt,value
2019-06-10T00:01:06.959Z,15.60
2019-06-10T00:03:35.086Z,15.50
2019-06-10T00:06:05.290Z,15.60
2019-06-10T00:08:34.789Z,15.60
2019-06-10T00:11:05.040Z,15.60
2019-06-10T00:13:34.370Z,15.60
2019-06-10T00:16:05.079Z,15.50
2019-06-10T00:18:41.861Z,15.60
2019-06-10T00:21:05.564Z,15.60
2019-06-10T00:23:35.631Z,15.60
2019-06-10T00:26:07.383Z,15.50
2019-06-10T00:28:35.317Z,15.50
2019-06-10T00:31:05.700Z,15.40
2019-06-10T00:33:35.250Z,15.40
2019-06-10T00:36:07.029Z,15.40
2019-06-10T00:38:34.874Z,15.40
2019-06-10T00:41:06.922Z,15.40
2019-06-10T00:43:34.525Z,15.30
2019-06-10T00:46:05.809Z,15.30
2019-06-10T00:48:34.169Z,15.20
2019-06-10T00:51:04.497Z,15.30
2019-06-10T00:53:33.776Z,15.20
2019-06-10T00:56:05.110Z,15.20
2019-06-10T00:58:33.295Z,15.20
2019-06-10T01:01:02.946Z,15.20
2019-06-10T01:03:33.090Z,15.20
2019-06-10T01:06:03.094Z,15.20
2019-06-10T01:08:32.653Z,15.10
2019-06-10T01:11:09.231Z,15.10
2019-06-10T01:13:32.496Z,15.10
2019-06-10T01:16:01.747Z,15.00
2019-06-10T01:18:37.550Z,15.00
2019-06-10T01:21:01.917Z,14.90
2019-06-10T01:23:31.502Z,14.90
2019-06-10T01:26:01.537Z,14.80
2019-06-10T01:28:31.460Z,14.80
2019-06-10T01:31:01.046Z,14.70
2019-06-10T01:33:31.908Z,14.60
2019-06-10T01:36:00.866Z,14.60
2019-06-10T01:38:31.653Z,14.50
2019-06-10T01:41:01.571Z,14.50
2019-06-10T01:43:32.012Z,14.50
2019-06-10T01:46:01.582Z,14.40
2019-06-10T01:48:43.650Z,14.40
2019-06-10T01:51:02.031Z,14.40
2019-06-10T01:53:31.600Z,14.40
2019-06-10T01:56:01.121Z,14.40
2019-06-10T01:58:31.656Z,14.40
2019-06-10T02:01:20.307Z,14.50
2019-06-10T02:03:51.730Z,14.50
2019-06-10T02:06:25.113Z,14.60
2019-06-10T02:08:52.898Z,14.60
2019-06-10T02:11:23.567Z,14.60
2019-06-10T02:13:52.401Z,14.60
2019-06-10T02:16:24.032Z,14.60
2019-06-10T02:19:00.223Z,14.60
2019-06-10T02:21:24.528Z,14.70
2019-06-10T02:23:53.758Z,14.60
2019-06-10T02:26:23.705Z,14.70
2019-06-10T02:28:52.929Z,14.70
2019-06-10T02:31:30.053Z,14.70
2019-06-10T02:33:52.782Z,14.70
2019-06-10T02:36:30.500Z,14.70
2019-06-10T02:38:53.919Z,14.70
2019-06-10T02:41:31.752Z,14.80
2019-06-10T02:43:53.708Z,14.70
2019-06-10T02:46:30.778Z,14.70
2019-06-10T02:48:54.500Z,14.70
2019-06-10T02:51:30.627Z,14.70
2019-06-10T02:53:54.365Z,14.70
2019-06-10T02:56:30.035Z,14.70
2019-06-10T02:58:54.048Z,14.60
2019-06-10T03:01:28.350Z,14.60
2019-06-10T03:03:54.526Z,14.60
2019-06-10T03:06:31.869Z,14.60
2019-06-10T03:08:55.165Z,14.50
2019-06-10T03:11:29.611Z,14.50
2019-06-10T03:13:54.802Z,14.40
2019-06-10T03:16:34.749Z,14.40
2019-06-10T03:19:03.968Z,14.40
2019-06-10T03:21:32.968Z,14.30
2019-06-10T03:24:02.705Z,14.30
2019-06-10T03:26:32.278Z,14.20
2019-06-10T03:29:02.758Z,14.20
2019-06-10T03:31:41.117Z,14.20
2019-06-10T03:34:05.127Z,14.10
2019-06-10T03:36:47.913Z,14.10
2019-06-10T03:39:16.766Z,14.00
2019-06-10T03:41:45.821Z,14.00
2019-06-10T03:44:14.734Z,14.00
2019-06-10T03:46:43.662Z,13.90
2019-06-10T03:49:12.837Z,13.90
2019-06-10T03:51:42.864Z,13.90
2019-06-10T03:54:13.074Z,13.90
2019-06-10T03:56:43.149Z,13.90
2019-06-10T03:59:12.441Z,13.90
2019-06-10T04:01:42.606Z,13.90
2019-06-10T04:04:13.082Z,13.90
2019-06-10T04:06:44.256Z,14.00
2019-06-10T04:09:12.940Z,14.00
2019-06-10T04:11:43.304Z,14.00
2019-06-10T04:14:13.121Z,14.00
2019-06-10T04:16:43.346Z,13.90
2019-06-10T04:19:13.170Z,14.00
2019-06-10T04:21:43.324Z,14.00
2019-06-10T04:24:12.967Z,14.00
2019-06-10T04:26:43.514Z,14.10
2019-06-10T04:29:13.188Z,14.10
2019-06-10T04:31:42.544Z,14.20
2019-06-10T04:34:12.450Z,14.20
2019-06-10T04:36:42.414Z,14.30
2019-06-10T04:39:13.424Z,14.30
2019-06-10T04:41:42.918Z,14.40
2019-06-10T04:44:13.127Z,14.40
2019-06-10T04:46:42.860Z,14.50
2019-06-10T04:49:13.164Z,14.50
2019-06-10T04:51:43.405Z,14.60
2019-06-10T04:54:13.371Z,14.60
2019-06-10T04:56:43.137Z,14.70
2019-06-10T04:59:12.665Z,14.70
2019-06-10T05:01:42.654Z,14.70
2019-06-10T05:04:12.537Z,14.70
2019-06-10T05:06:52.652Z,14.60
2019-06-10T05:09:24.433Z,14.60
2019-06-10T05:11:53.838Z,14.60
2019-06-10T05:14:25.290Z,14.60
2019-06-10T05:16:54.394Z,14.60
2019-06-10T05:19:26.427Z,14.60
2019-06-10T05:21:56.267Z,14.70
2019-06-10T05:24:28.488Z,14.80
2019-06-10T05:26:57.290Z,14.80
2019-06-10T05:29:27.820Z,14.90
2019-06-10T05:31:57.366Z,15.00
2019-06-10T05:34:30.309Z,15.00
2019-06-10T05:37:02.851Z,15.20
2019-06-10T05:39:34.836Z,15.20
2019-06-10T05:42:05.208Z,15.40
2019-06-10T05:44:34.648Z,15.40
2019-06-10T05:47:26.630Z,15.50
2019-06-10T05:49:54.131Z,15.70
2019-06-10T05:52:26.161Z,15.90
2019-06-10T05:54:55.645Z,16.00
2019-06-10T05:57:25.759Z,16.20
2019-06-10T05:59:54.966Z,16.40
2019-06-10T06:02:23.987Z,16.50
2019-06-10T06:04:53.183Z,16.60
2019-06-10T06:07:22.343Z,16.70
2019-06-10T06:09:53.287Z,16.80
2019-06-10T06:12:22.637Z,17.10
2019-06-10T06:14:52.770Z,17.30
2019-06-10T06:17:23.625Z,17.40
2019-06-10T06:19:53.535Z,17.40
2019-06-10T06:22:22.623Z,17.40
2019-06-10T06:24:52.360Z,17.60
2019-06-10T06:27:22.514Z,17.60
2019-06-10T06:29:52.467Z,17.70
2019-06-10T06:32:23.570Z,17.70
2019-06-10T06:34:53.148Z,17.80
2019-06-10T06:37:23.160Z,18.00
2019-06-10T06:39:52.510Z,18.20
2019-06-10T06:42:22.871Z,18.20
2019-06-10T06:44:52.538Z,18.30
2019-06-10T06:47:22.576Z,18.40
2019-06-10T06:49:53.169Z,18.40
2019-06-10T06:52:46.418Z,18.40
2019-06-10T06:54:54.352Z,18.40
2019-06-10T06:57:23.204Z,18.50
2019-06-10T06:59:52.724Z,18.80
2019-06-10T07:02:22.738Z,19.00
2019-06-10T07:04:52.569Z,19.30
2019-06-10T07:07:22.518Z,19.50
2019-06-10T07:09:54.569Z,19.40
2019-06-10T07:12:25.390Z,19.40
2019-06-10T07:14:54.464Z,19.20
2019-06-10T07:17:23.345Z,19.20
2019-06-10T07:19:52.891Z,19.30
2019-06-10T07:22:23.286Z,19.40
2019-06-10T07:24:54.252Z,19.30
2019-06-10T07:27:23.267Z,19.30
2019-06-10T07:29:52.979Z,19.40
2019-06-10T07:32:22.732Z,19.60
2019-06-10T07:34:52.596Z,19.80
2019-06-10T07:37:23.236Z,19.90
2019-06-10T07:39:52.554Z,20.00
2019-06-10T07:42:22.719Z,20.00
2019-06-10T07:44:53.286Z,20.10
2019-06-10T07:47:23.155Z,20.10
2019-06-10T07:49:52.734Z,20.20
2019-06-10T07:52:23.497Z,20.10
2019-06-10T07:54:52.922Z,20.20
2019-06-10T07:57:22.611Z,20.10
2019-06-10T07:59:52.382Z,20.20
2019-06-10T08:02:23.057Z,20.30
2019-06-10T08:04:54.245Z,20.40
2019-06-10T08:07:23.093Z,20.60
2019-06-10T08:09:53.276Z,20.40
2019-06-10T08:12:23.499Z,20.50
2019-06-10T08:14:53.487Z,20.70
2019-06-10T08:17:23.249Z,20.80
2019-06-10T08:19:54.240Z,20.80
2019-06-10T08:22:50.828Z,20.80
2019-06-10T08:25:14.063Z,20.90
2019-06-10T08:27:45.415Z,20.90
2019-06-10T08:30:22.487Z,21.20
2019-06-10T08:32:46.815Z,21.20
2019-06-10T08:35:15.965Z,21.30
2019-06-10T08:37:46.290Z,21.10
2019-06-10T08:40:16.059Z,21.10
2019-06-10T08:42:47.313Z,21.40
2019-06-10T08:45:16.624Z,21.70
2019-06-10T08:47:47.268Z,21.90
2019-06-10T08:50:21.122Z,22.00
2019-06-10T08:53:05.752Z,22.20
2019-06-10T08:55:19.910Z,22.40
2019-06-10T08:57:50.983Z,22.50
2019-06-10T09:00:39.206Z,22.40
2019-06-10T09:03:09.580Z,22.70
2019-06-10T09:05:40.445Z,23.00
2019-06-10T09:08:09.230Z,23.30
2019-06-10T09:10:39.603Z,23.30
2019-06-10T09:13:08.978Z,22.90
2019-06-10T09:15:38.742Z,23.10
2019-06-10T09:18:08.161Z,23.30
2019-06-10T09:20:37.301Z,23.40
2019-06-10T09:23:18.442Z,22.90
2019-06-10T09:25:37.081Z,23.30
2019-06-10T09:28:06.117Z,23.30
2019-06-10T09:30:35.168Z,23.60
2019-06-10T09:33:05.143Z,23.90
2019-06-10T09:35:34.048Z,24.10
2019-06-10T09:38:03.784Z,23.80
2019-06-10T09:41:00.685Z,23.80
2019-06-10T09:43:24.046Z,24.10
2019-06-10T09:45:56.317Z,23.80
2019-06-10T09:48:24.182Z,24.10
2019-06-10T09:50:57.879Z,24.20
2019-06-10T09:53:33.515Z,23.90
2019-06-10T09:55:55.672Z,23.80
2019-06-10T09:58:24.899Z,24.10
2019-06-10T10:00:57.915Z,23.90
2019-06-10T10:03:27.685Z,24.20
2019-06-10T10:06:09.772Z,24.30
2019-06-10T10:08:27.646Z,23.90
2019-06-10T10:10:59.019Z,23.70
2019-06-10T10:13:27.293Z,23.60
2019-06-10T10:15:56.401Z,23.70
2019-06-10T10:18:25.437Z,23.60
2019-06-10T10:20:59.121Z,23.50
2019-06-10T10:23:25.026Z,23.90
2019-06-10T10:25:57.011Z,24.30
2019-06-10T10:28:26.385Z,24.00
2019-06-10T10:30:57.888Z,23.80
2019-06-10T10:33:29.894Z,24.00
2019-06-10T10:35:57.195Z,24.20
2019-06-10T10:38:26.090Z,24.80
2019-06-10T10:40:58.569Z,24.60
2019-06-10T10:43:32.976Z,24.40
2019-06-10T10:46:00.158Z,25.10
2019-06-10T10:48:27.022Z,25.90
2019-06-10T10:50:56.303Z,25.90
2019-06-10T10:53:25.366Z,25.70
2019-06-10T10:55:54.537Z,25.50
2019-06-10T10:58:23.909Z,25.40
2019-06-10T11:00:56.516Z,25.50
2019-06-10T11:03:23.762Z,25.80
2019-06-10T11:06:00.529Z,25.60
2019-06-10T11:08:23.865Z,25.60
2019-06-10T11:10:57.830Z,25.50
2019-06-10T11:13:27.938Z,25.70
2019-06-10T11:15:58.444Z,26.50
2019-06-10T11:18:27.742Z,26.10
2019-06-10T11:21:00.385Z,25.40
2019-06-10T11:23:27.843Z,25.20
2019-06-10T11:25:58.860Z,25.00
2019-06-10T11:28:27.958Z,24.70
2019-06-10T11:30:58.590Z,24.30
2019-06-10T11:33:27.773Z,24.30
2019-06-10T11:35:58.960Z,24.10
2019-06-10T11:38:28.010Z,24.10
2019-06-10T11:40:59.974Z,24.10
2019-06-10T11:43:27.772Z,23.90
2019-06-10T11:46:02.991Z,23.70
2019-06-10T11:48:27.765Z,23.70
2019-06-10T11:51:00.135Z,23.50
2019-06-10T11:53:28.780Z,23.20
2019-06-10T11:55:58.177Z,23.30
2019-06-10T11:58:27.058Z,23.40
2019-06-10T12:00:58.800Z,23.50
2019-06-10T12:03:26.608Z,23.50
2019-06-10T12:05:59.284Z,23.40
2019-06-10T12:08:26.349Z,23.40
2019-06-10T12:10:59.107Z,23.60
2019-06-10T12:13:26.265Z,23.60
2019-06-10T12:16:34.941Z,23.60
2019-06-10T12:18:25.705Z,23.80
2019-06-10T12:20:59.206Z,23.80
2019-06-10T12:23:25.314Z,23.50
2019-06-10T12:25:56.698Z,23.30
2019-06-10T12:28:25.553Z,23.20
2019-06-10T12:30:58.261Z,23.10
2019-06-10T12:33:25.554Z,23.30
2019-06-10T12:35:58.556Z,23.20
2019-06-10T12:38:25.441Z,23.40
2019-06-10T12:40:57.056Z,23.80
2019-06-10T12:43:25.328Z,23.80
2019-06-10T12:45:55.929Z,24.20
2019-06-10T12:48:25.325Z,24.30
2019-06-10T12:50:57.361Z,24.40
2019-06-10T12:53:24.921Z,23.90
2019-06-10T12:55:55.862Z,23.80
2019-06-10T12:58:24.750Z,23.60
2019-06-10T13:00:54.341Z,23.50
2019-06-10T13:03:24.465Z,23.60
2019-06-10T13:05:53.921Z,23.60
2019-06-10T13:08:24.661Z,23.60
2019-06-10T13:10:55.624Z,23.70
2019-06-10T13:13:24.918Z,23.50
2019-06-10T13:15:54.179Z,23.50
2019-06-10T13:18:23.767Z,23.40
2019-06-10T13:20:53.763Z,23.50
2019-06-10T13:23:31.936Z,23.70
2019-06-10T13:26:00.174Z,23.80
2019-06-10T13:28:26.839Z,23.90
2019-06-10T13:30:56.998Z,23.70
2019-06-10T13:33:26.241Z,24.00
2019-06-10T13:35:56.664Z,24.20
2019-06-10T13:38:26.001Z,24.30
2019-06-10T13:40:55.003Z,24.30
2019-06-10T13:43:24.646Z,24.50
2019-06-10T13:45:53.906Z,24.60
2019-06-10T13:48:25.864Z,24.90
2019-06-10T13:50:53.800Z,24.90
2019-06-10T13:53:22.670Z,25.00
2019-06-10T13:56:02.650Z,24.90
2019-06-10T13:58:23.026Z,25.30
2019-06-10T14:00:53.612Z,25.50
2019-06-10T14:03:23.075Z,25.50
2019-06-10T14:05:57.884Z,25.70
2019-06-10T14:08:23.225Z,25.80
2019-06-10T14:10:54.160Z,25.70
2019-06-10T14:13:23.820Z,25.60
2019-06-10T14:15:54.145Z,25.40
2019-06-10T14:18:23.467Z,25.30
2019-06-10T14:20:53.351Z,25.40
2019-06-10T14:23:22.577Z,25.90
2019-06-10T14:25:52.610Z,26.20
2019-06-10T14:28:38.451Z,25.80
2019-06-10T14:30:53.743Z,25.70
2019-06-10T14:33:23.415Z,25.60
2019-06-10T14:35:53.395Z,26.20
2019-06-10T14:38:22.828Z,26.30
2019-06-10T14:40:54.748Z,26.30
2019-06-10T14:43:23.872Z,26.40
2019-06-10T14:45:53.731Z,26.30
2019-06-10T14:48:23.649Z,26.10
2019-06-10T14:50:53.360Z,26.00
2019-06-10T14:53:23.192Z,26.00
2019-06-10T14:55:53.192Z,26.20
2019-06-10T14:58:23.323Z,26.30
2019-06-10T15:00:54.218Z,26.10
2019-06-10T15:03:23.368Z,25.80
2019-06-10T15:05:54.154Z,25.90
2019-06-10T15:08:23.333Z,25.50
2019-06-10T15:10:52.919Z,25.20
2019-06-10T15:13:23.585Z,25.10
2019-06-10T15:15:53.407Z,25.10
2019-06-10T15:18:23.798Z,25.20
2019-06-10T15:20:53.717Z,25.00
2019-06-10T15:23:23.785Z,25.00
2019-06-10T15:25:56.827Z,25.00
2019-06-10T15:28:24.229Z,24.70
2019-06-10T15:30:53.140Z,24.60
2019-06-10T15:33:23.747Z,24.50
2019-06-10T15:35:53.314Z,24.50
2019-06-10T15:38:23.420Z,24.40
2019-06-10T15:40:54.120Z,24.50
2019-06-10T15:43:23.682Z,24.30
2019-06-10T15:45:53.199Z,24.20
2019-06-10T15:48:25.445Z,24.10
2019-06-10T15:50:56.038Z,24.30
2019-06-10T15:53:27.328Z,24.30
2019-06-10T15:56:16.950Z,24.30
2019-06-10T15:58:32.114Z,24.20
2019-06-10T16:01:02.908Z,24.10
2019-06-10T16:03:33.092Z,24.30
2019-06-10T16:06:03.079Z,24.20
2019-06-10T16:08:32.591Z,24.20
2019-06-10T16:11:03.100Z,24.20
2019-06-10T16:13:32.613Z,24.10
2019-06-10T16:16:03.588Z,24.10
2019-06-10T16:18:33.072Z,24.00
2019-06-10T16:21:04.218Z,23.90
2019-06-10T16:23:34.228Z,23.80
2019-06-10T16:26:03.564Z,23.70
2019-06-10T16:28:33.044Z,23.70
2019-06-10T16:31:02.957Z,23.70
2019-06-10T16:33:33.866Z,23.70
2019-06-10T16:36:03.185Z,23.80
2019-06-10T16:38:32.801Z,23.80
2019-06-10T16:41:03.602Z,23.70
2019-06-10T16:43:35.437Z,23.70
2019-06-10T16:46:04.986Z,23.60
2019-06-10T16:48:34.129Z,23.60
2019-06-10T16:51:03.557Z,23.50
2019-06-10T16:53:35.512Z,23.40
2019-06-10T16:56:03.566Z,23.40
2019-06-10T16:58:33.376Z,23.30
2019-06-10T17:01:03.873Z,23.30
2019-06-10T17:03:34.026Z,23.20
2019-06-10T17:06:03.295Z,23.10
2019-06-10T17:08:33.384Z,22.90
2019-06-10T17:11:03.576Z,22.80
2019-06-10T17:13:32.891Z,22.70
2019-06-10T17:16:04.172Z,22.70
2019-06-10T17:18:33.857Z,22.70
2019-06-10T17:21:04.199Z,22.70
2019-06-10T17:23:36.332Z,22.70
2019-06-10T17:26:04.805Z,22.60
2019-06-10T17:28:36.827Z,22.60
2019-06-10T17:31:04.862Z,22.60
2019-06-10T17:33:35.815Z,22.50
2019-06-10T17:36:05.077Z,22.40
2019-06-10T17:38:34.004Z,22.30
2019-06-10T17:41:03.280Z,22.30
2019-06-10T17:43:34.121Z,22.20
2019-06-10T17:46:03.609Z,22.20
2019-06-10T17:48:33.726Z,22.10
2019-06-10T17:51:03.249Z,22.10
2019-06-10T17:53:34.721Z,22.20
2019-06-10T17:56:03.476Z,22.10
2019-06-10T17:58:47.486Z,22.10
2019-06-10T18:01:03.595Z,22.10
2019-06-10T18:03:35.678Z,22.00
2019-06-10T18:06:04.302Z,21.90
2019-06-10T18:08:36.324Z,21.80
2019-06-10T18:11:03.912Z,21.70
2019-06-10T18:13:34.748Z,21.70
2019-06-10T18:16:03.569Z,21.70
2019-06-10T18:18:37.187Z,21.70
2019-06-10T18:21:05.370Z,21.60
2019-06-10T18:23:35.154Z,21.60
2019-06-10T18:26:04.517Z,21.50
2019-06-10T18:28:45.301Z,21.40
2019-06-10T18:31:04.116Z,21.30
2019-06-10T18:33:36.030Z,21.40
2019-06-10T18:36:04.022Z,21.30
2019-06-10T18:38:35.589Z,21.20
2019-06-10T18:41:03.871Z,21.10
2019-06-10T18:43:35.112Z,21.10
2019-06-10T18:46:03.676Z,21.20
2019-06-10T18:48:36.167Z,21.10
2019-06-10T18:51:03.438Z,21.00
2019-06-10T18:53:34.475Z,20.90
2019-06-10T18:56:03.086Z,20.80
2019-06-10T18:58:34.233Z,20.70
2019-06-10T19:01:07.488Z,20.60
2019-06-10T19:03:36.239Z,20.60
2019-06-10T19:06:04.410Z,20.50
2019-06-10T19:08:35.954Z,20.40
2019-06-10T19:11:04.464Z,20.30
2019-06-10T19:13:35.262Z,20.20
2019-06-10T19:16:04.351Z,20.20
2019-06-10T19:18:33.935Z,20.10
2019-06-10T19:21:05.061Z,20.10
2019-06-10T19:23:36.336Z,19.90
2019-06-10T19:26:04.816Z,19.90
2019-06-10T19:28:36.826Z,19.80
2019-06-10T19:31:04.986Z,19.80
2019-06-10T19:33:35.757Z,19.80
2019-06-10T19:36:05.176Z,19.70
2019-06-10T19:38:35.486Z,19.70
2019-06-10T19:41:05.223Z,19.60
2019-06-10T19:43:36.156Z,19.40
2019-06-10T19:46:07.529Z,19.30
2019-06-10T19:48:38.436Z,19.00
2019-06-10T19:51:06.298Z,18.70
2019-06-10T19:53:36.016Z,18.60
2019-06-10T19:56:05.979Z,18.50
2019-06-10T19:58:36.133Z,18.40
2019-06-10T20:01:05.206Z,18.20
2019-06-10T20:03:34.670Z,18.20
2019-06-10T20:06:04.928Z,18.00
2019-06-10T20:08:34.641Z,17.90
2019-06-10T20:11:04.139Z,17.70
2019-06-10T20:13:34.329Z,17.70
2019-06-10T20:16:03.414Z,17.60
2019-06-10T20:18:33.263Z,17.50
2019-06-10T20:21:02.849Z,17.40
2019-06-10T20:23:33.359Z,17.40
2019-06-10T20:26:02.402Z,17.20
2019-06-10T20:28:32.203Z,17.20
2019-06-10T20:31:01.481Z,17.20
2019-06-10T20:33:36.330Z,17.10
2019-06-10T20:36:07.508Z,17.10
2019-06-10T20:38:34.498Z,17.00
2019-06-10T20:41:03.527Z,17.00
2019-06-10T20:43:32.974Z,16.90
2019-06-10T20:46:02.915Z,16.90
2019-06-10T20:48:33.546Z,17.00
2019-06-10T20:51:03.225Z,17.00
2019-06-10T20:53:33.762Z,17.00
2019-06-10T20:56:03.806Z,17.00
2019-06-10T20:58:33.375Z,17.00
2019-06-10T21:01:04.413Z,16.90
2019-06-10T21:03:34.144Z,16.90
2019-06-10T21:06:04.278Z,17.00
2019-06-10T21:08:33.697Z,16.90
2019-06-10T21:11:03.212Z,16.90
2019-06-10T21:13:33.157Z,16.90
2019-06-10T21:16:03.634Z,16.90
2019-06-10T21:18:33.331Z,16.90
2019-06-10T21:21:02.449Z,16.90
2019-06-10T21:23:31.669Z,16.80
2019-06-10T21:26:02.994Z,16.80
2019-06-10T21:28:32.626Z,16.80
2019-06-10T21:31:02.883Z,16.80
2019-06-10T21:33:33.260Z,16.70
2019-06-10T21:36:03.856Z,16.80
2019-06-10T21:38:33.414Z,16.80
2019-06-10T21:41:03.363Z,16.80
2019-06-10T21:43:33.109Z,16.70
2019-06-10T21:46:03.656Z,16.80
2019-06-10T21:48:33.189Z,16.80
2019-06-10T21:51:02.178Z,16.80
2019-06-10T21:53:31.180Z,16.80
2019-06-10T21:56:00.114Z,16.80
2019-06-10T21:58:29.069Z,16.80
2019-06-10T22:01:09.832Z,16.80
2019-06-10T22:03:28.811Z,16.80
2019-06-10T22:05:57.785Z,16.80
2019-06-10T22:08:26.810Z,16.70
2019-06-10T22:10:56.642Z,16.70
2019-06-10T22:13:25.668Z,16.70
2019-06-10T22:15:56.871Z,16.70
2019-06-10T22:18:25.633Z,16.80
2019-06-10T22:20:57.525Z,16.70
2019-06-10T22:23:25.266Z,16.60
2019-06-10T22:25:57.502Z,16.70
2019-06-10T22:28:26.381Z,16.70
2019-06-10T22:31:14.810Z,16.60
2019-06-10T22:33:26.013Z,16.50
2019-06-10T22:35:56.273Z,16.50
2019-06-10T22:38:25.713Z,16.50
2019-06-10T22:40:56.908Z,16.60
2019-06-10T22:43:25.389Z,16.60
2019-06-10T22:45:55.642Z,16.50
2019-06-10T22:48:25.121Z,16.50
2019-06-10T22:50:55.367Z,16.50
2019-06-10T22:53:24.654Z,16.50
2019-06-10T22:55:56.242Z,16.50
2019-06-10T22:58:24.546Z,16.50
2019-06-10T23:00:56.212Z,16.50
2019-06-10T23:03:24.234Z,16.40
2019-06-10T23:05:54.356Z,16.50
2019-06-10T23:08:23.731Z,16.50
2019-06-10T23:10:53.784Z,16.50
2019-06-10T23:13:23.540Z,16.40
2019-06-10T23:15:53.935Z,16.40
2019-06-10T23:18:23.084Z,16.40
2019-06-10T23:20:55.596Z,16.30
2019-06-10T23:23:23.340Z,16.20
2019-06-10T23:25:53.705Z,16.20
2019-06-10T23:28:23.034Z,16.20
2019-06-10T23:30:55.271Z,16.20
2019-06-10T23:33:23.079Z,16.20
2019-06-10T23:35:52.696Z,16.20
2019-06-10T23:38:23.646Z,16.20
2019-06-10T23:40:52.781Z,16.20
2019-06-10T23:43:22.585Z,16.20
2019-06-10T23:45:53.186Z,16.20
2019-06-10T23:48:22.838Z,16.20
2019-06-10T23:50:54.038Z,16.20
2019-06-10T23:53:23.362Z,16.20
2019-06-10T23:55:53.528Z,16.20
2019-06-10T23:58:25.202Z,16.20
